sensor_id;sensor_type;location;lat;lon;timestamp;P1;durP1;ratioP1;P2;durP2;ratioP2
74626;SDS011;63132;52.268;5.192;2023-04-01T00:01:44;41.47;;;12.73;;
74626;SDS011;63132;52.268;5.192;2023-04-01T00:04:09;49.15;;;12.32;;
74626;SDS011;63132;52.268;5.192;2023-04-01T00:06:35;38.33;;;12.80;;
74626;SDS011;63132;52.268;5.192;2023-04-01T00:09:00;40.13;;;13.85;;
74626;SDS011;63132;52.268;5.192;2023-04-01T00:11:26;45.45;;;14.27;;
74626;SDS011;63132;52.268;5.192;2023-04-01T00:13:52;55.00;;;14.90;;
74626;SDS011;63132;52.268;5.192;2023-04-01T00:16:18;40.35;;;14.23;;
74626;SDS011;63132;52.268;5.192;2023-04-01T00:18:44;43.78;;;13.50;;
74626;SDS011;63132;52.268;5.192;2023-04-01T00:21:12;34.58;;;15.68;;
74626;SDS011;63132;52.268;5.192;2023-04-01T00:23:37;40.55;;;14.73;;
74626;SDS011;63132;52.268;5.192;2023-04-01T00:26:03;45.85;;;15.25;;
74626;SDS011;63132;52.268;5.192;2023-04-01T00:28:29;40.40;;;14.93;;
74626;SDS011;63132;52.268;5.192;2023-04-01T00:30:54;42.00;;;15.38;;
74626;SDS011;63132;52.268;5.192;2023-04-01T00:33:20;49.25;;;15.52;;
74626;SDS011;63132;52.268;5.192;2023-04-01T00:35:45;41.58;;;14.77;;
74626;SDS011;63132;52.268;5.192;2023-04-01T00:38:11;45.30;;;16.17;;
74626;SDS011;63132;52.268;5.192;2023-04-01T00:40:38;51.63;;;17.55;;
74626;SDS011;63132;52.268;5.192;2023-04-01T00:43:10;45.20;;;16.02;;
74626;SDS011;63132;52.268;5.192;2023-04-01T00:45:43;54.15;;;17.55;;
74626;SDS011;63132;52.268;5.192;2023-04-01T00:48:11;41.78;;;16.52;;
74626;SDS011;63132;52.268;5.192;2023-04-01T00:50:42;52.30;;;18.30;;
74626;SDS011;63132;52.268;5.192;2023-04-01T00:53:11;53.42;;;17.10;;
74626;SDS011;63132;52.268;5.192;2023-04-01T00:55:38;52.92;;;18.02;;
74626;SDS011;63132;52.268;5.192;2023-04-01T00:58:07;49.63;;;17.40;;
74626;SDS011;63132;52.268;5.192;2023-04-01T01:00:35;51.30;;;17.10;;
74626;SDS011;63132;52.268;5.192;2023-04-01T01:03:02;43.95;;;16.42;;
74626;SDS011;63132;52.268;5.192;2023-04-01T01:05:36;44.53;;;15.88;;
74626;SDS011;63132;52.268;5.192;2023-04-01T01:10:39;28.45;;;11.05;;
74626;SDS011;63132;52.268;5.192;2023-04-01T01:13:15;23.05;;;8.95;;
74626;SDS011;63132;52.268;5.192;2023-04-01T01:18:49;33.15;;;11.13;;
74626;SDS011;63132;52.268;5.192;2023-04-01T01:24:05;29.67;;;12.00;;
74626;SDS011;63132;52.268;5.192;2023-04-01T01:37:10;24.75;;;9.90;;
74626;SDS011;63132;52.268;5.192;2023-04-01T01:39:39;17.67;;;7.68;;
74626;SDS011;63132;52.268;5.192;2023-04-01T01:42:09;18.98;;;8.10;;
74626;SDS011;63132;52.268;5.192;2023-04-01T01:44:38;19.13;;;7.70;;
74626;SDS011;63132;52.268;5.192;2023-04-01T01:47:07;17.95;;;8.05;;
74626;SDS011;63132;52.268;5.192;2023-04-01T01:52:00;21.58;;;6.82;;
74626;SDS011;63132;52.268;5.192;2023-04-01T01:54:26;16.17;;;6.55;;
74626;SDS011;63132;52.268;5.192;2023-04-01T01:56:52;18.20;;;6.57;;
74626;SDS011;63132;52.268;5.192;2023-04-01T01:59:25;18.38;;;6.68;;
74626;SDS011;63132;52.268;5.192;2023-04-01T02:01:54;19.08;;;6.90;;
74626;SDS011;63132;52.268;5.192;2023-04-01T02:04:21;15.57;;;7.10;;
74626;SDS011;63132;52.268;5.192;2023-04-01T02:09:17;14.98;;;7.00;;
74626;SDS011;63132;52.268;5.192;2023-04-01T02:11:56;18.45;;;7.20;;
74626;SDS011;63132;52.268;5.192;2023-04-01T02:14:28;14.68;;;7.18;;
74626;SDS011;63132;52.268;5.192;2023-04-01T02:19:49;19.38;;;7.80;;
74626;SDS011;63132;52.268;5.192;2023-04-01T02:22:20;17.23;;;8.68;;
74626;SDS011;63132;52.268;5.192;2023-04-01T02:24:53;18.38;;;8.93;;
74626;SDS011;63132;52.268;5.192;2023-04-01T02:27:24;19.20;;;8.82;;
74626;SDS011;63132;52.268;5.192;2023-04-01T02:29:51;19.20;;;8.52;;
74626;SDS011;63132;52.268;5.192;2023-04-01T02:32:17;17.38;;;8.77;;
74626;SDS011;63132;52.268;5.192;2023-04-01T02:34:45;21.17;;;8.88;;
74626;SDS011;63132;52.268;5.192;2023-04-01T02:37:12;18.60;;;9.95;;
74626;SDS011;63132;52.268;5.192;2023-04-01T02:39:38;18.38;;;9.25;;
74626;SDS011;63132;52.268;5.192;2023-04-01T02:42:04;20.60;;;9.30;;
74626;SDS011;63132;52.268;5.192;2023-04-01T02:44:30;19.15;;;9.55;;
74626;SDS011;63132;52.268;5.192;2023-04-01T02:46:55;19.58;;;9.90;;
74626;SDS011;63132;52.268;5.192;2023-04-01T02:49:21;19.80;;;9.95;;
74626;SDS011;63132;52.268;5.192;2023-04-01T02:51:46;25.13;;;10.98;;
74626;SDS011;63132;52.268;5.192;2023-04-01T02:54:12;18.83;;;9.27;;
74626;SDS011;63132;52.268;5.192;2023-04-01T02:56:37;23.70;;;11.02;;
74626;SDS011;63132;52.268;5.192;2023-04-01T02:59:02;31.33;;;11.80;;
74626;SDS011;63132;52.268;5.192;2023-04-01T03:01:28;26.63;;;11.10;;
74626;SDS011;63132;52.268;5.192;2023-04-01T03:03:53;27.30;;;13.68;;
74626;SDS011;63132;52.268;5.192;2023-04-01T03:06:18;31.92;;;13.93;;
74626;SDS011;63132;52.268;5.192;2023-04-01T03:08:44;31.45;;;13.52;;
74626;SDS011;63132;52.268;5.192;2023-04-01T03:11:10;45.65;;;18.05;;
74626;SDS011;63132;52.268;5.192;2023-04-01T03:13:36;45.58;;;16.65;;
74626;SDS011;63132;52.268;5.192;2023-04-01T03:16:01;53.88;;;16.67;;
74626;SDS011;63132;52.268;5.192;2023-04-01T03:18:27;39.78;;;15.65;;
74626;SDS011;63132;52.268;5.192;2023-04-01T03:20:52;46.55;;;16.30;;
74626;SDS011;63132;52.268;5.192;2023-04-01T03:23:18;49.67;;;17.85;;
74626;SDS011;63132;52.268;5.192;2023-04-01T03:25:45;44.22;;;16.13;;
74626;SDS011;63132;52.268;5.192;2023-04-01T03:28:11;39.92;;;15.48;;
74626;SDS011;63132;52.268;5.192;2023-04-01T03:30:38;30.40;;;13.50;;
74626;SDS011;63132;52.268;5.192;2023-04-01T03:33:03;30.30;;;13.32;;
74626;SDS011;63132;52.268;5.192;2023-04-01T03:35:29;28.83;;;12.43;;
74626;SDS011;63132;52.268;5.192;2023-04-01T03:37:55;21.70;;;10.60;;
74626;SDS011;63132;52.268;5.192;2023-04-01T03:40:20;20.98;;;9.50;;
74626;SDS011;63132;52.268;5.192;2023-04-01T03:45:12;25.58;;;10.05;;
74626;SDS011;63132;52.268;5.192;2023-04-01T03:47:38;21.95;;;10.15;;
74626;SDS011;63132;52.268;5.192;2023-04-01T03:50:04;24.90;;;10.75;;
74626;SDS011;63132;52.268;5.192;2023-04-01T03:52:30;22.67;;;8.88;;
74626;SDS011;63132;52.268;5.192;2023-04-01T03:54:56;25.40;;;9.40;;
74626;SDS011;63132;52.268;5.192;2023-04-01T03:57:21;19.67;;;8.13;;
74626;SDS011;63132;52.268;5.192;2023-04-01T03:59:47;18.95;;;8.15;;
74626;SDS011;63132;52.268;5.192;2023-04-01T04:02:12;16.70;;;7.43;;
74626;SDS011;63132;52.268;5.192;2023-04-01T04:04:37;13.50;;;5.43;;
74626;SDS011;63132;52.268;5.192;2023-04-01T04:07:03;12.73;;;5.30;;
74626;SDS011;63132;52.268;5.192;2023-04-01T04:09:30;15.88;;;5.75;;
74626;SDS011;63132;52.268;5.192;2023-04-01T04:11:55;16.27;;;5.63;;
74626;SDS011;63132;52.268;5.192;2023-04-01T04:14:22;16.27;;;6.43;;
74626;SDS011;63132;52.268;5.192;2023-04-01T04:16:48;21.25;;;6.95;;
74626;SDS011;63132;52.268;5.192;2023-04-01T04:19:13;18.13;;;7.18;;
74626;SDS011;63132;52.268;5.192;2023-04-01T04:21:39;17.23;;;6.68;;
74626;SDS011;63132;52.268;5.192;2023-04-01T04:24:06;21.88;;;8.07;;
74626;SDS011;63132;52.268;5.192;2023-04-01T04:26:31;21.52;;;7.68;;
74626;SDS011;63132;52.268;5.192;2023-04-01T04:28:56;21.40;;;9.30;;
74626;SDS011;63132;52.268;5.192;2023-04-01T04:31:23;20.23;;;8.65;;
74626;SDS011;63132;52.268;5.192;2023-04-01T04:33:49;22.33;;;9.43;;
74626;SDS011;63132;52.268;5.192;2023-04-01T04:36:16;24.25;;;10.40;;
74626;SDS011;63132;52.268;5.192;2023-04-01T04:38:41;24.20;;;10.52;;
74626;SDS011;63132;52.268;5.192;2023-04-01T04:41:10;23.65;;;10.68;;
74626;SDS011;63132;52.268;5.192;2023-04-01T04:43:37;24.45;;;10.63;;
74626;SDS011;63132;52.268;5.192;2023-04-01T04:46:12;25.85;;;10.90;;
74626;SDS011;63132;52.268;5.192;2023-04-01T04:48:37;23.52;;;10.27;;
74626;SDS011;63132;52.268;5.192;2023-04-01T04:51:02;28.15;;;11.55;;
74626;SDS011;63132;52.268;5.192;2023-04-01T04:53:28;23.35;;;10.02;;
74626;SDS011;63132;52.268;5.192;2023-04-01T04:55:55;23.45;;;10.20;;
74626;SDS011;63132;52.268;5.192;2023-04-01T04:58:20;24.25;;;10.63;;
74626;SDS011;63132;52.268;5.192;2023-04-01T05:00:46;22.92;;;11.07;;
74626;SDS011;63132;52.268;5.192;2023-04-01T05:03:12;24.27;;;10.57;;
74626;SDS011;63132;52.268;5.192;2023-04-01T05:05:38;25.70;;;9.82;;
74626;SDS011;63132;52.268;5.192;2023-04-01T05:08:04;26.00;;;10.55;;
74626;SDS011;63132;52.268;5.192;2023-04-01T05:10:29;22.98;;;10.15;;
74626;SDS011;63132;52.268;5.192;2023-04-01T05:12:56;27.65;;;9.80;;
74626;SDS011;63132;52.268;5.192;2023-04-01T05:15:22;26.50;;;11.98;;
74626;SDS011;63132;52.268;5.192;2023-04-01T05:17:47;30.85;;;12.13;;
74626;SDS011;63132;52.268;5.192;2023-04-01T05:20:13;28.95;;;11.50;;
74626;SDS011;63132;52.268;5.192;2023-04-01T05:22:39;27.67;;;11.60;;
74626;SDS011;63132;52.268;5.192;2023-04-01T05:25:05;28.80;;;11.80;;
74626;SDS011;63132;52.268;5.192;2023-04-01T05:27:30;25.90;;;11.13;;
74626;SDS011;63132;52.268;5.192;2023-04-01T05:29:56;28.20;;;11.10;;
74626;SDS011;63132;52.268;5.192;2023-04-01T05:32:22;31.65;;;12.35;;
74626;SDS011;63132;52.268;5.192;2023-04-01T05:34:49;30.15;;;12.95;;
74626;SDS011;63132;52.268;5.192;2023-04-01T05:37:15;24.02;;;10.52;;
74626;SDS011;63132;52.268;5.192;2023-04-01T05:39:41;28.20;;;12.23;;
74626;SDS011;63132;52.268;5.192;2023-04-01T05:42:06;28.70;;;12.32;;
74626;SDS011;63132;52.268;5.192;2023-04-01T05:44:32;26.73;;;11.85;;
74626;SDS011;63132;52.268;5.192;2023-04-01T05:46:58;27.65;;;12.13;;
74626;SDS011;63132;52.268;5.192;2023-04-01T05:49:24;29.48;;;12.90;;
74626;SDS011;63132;52.268;5.192;2023-04-01T05:51:50;32.20;;;13.27;;
74626;SDS011;63132;52.268;5.192;2023-04-01T05:54:16;29.83;;;12.50;;
74626;SDS011;63132;52.268;5.192;2023-04-01T05:56:42;27.88;;;12.93;;
74626;SDS011;63132;52.268;5.192;2023-04-01T05:59:09;27.13;;;11.95;;
74626;SDS011;63132;52.268;5.192;2023-04-01T06:01:35;30.83;;;11.27;;
74626;SDS011;63132;52.268;5.192;2023-04-01T06:04:01;30.58;;;11.40;;
74626;SDS011;63132;52.268;5.192;2023-04-01T06:06:27;25.45;;;10.68;;
74626;SDS011;63132;52.268;5.192;2023-04-01T06:08:56;22.95;;;10.57;;
74626;SDS011;63132;52.268;5.192;2023-04-01T06:35:35;10.43;;;4.53;;
74626;SDS011;63132;52.268;5.192;2023-04-01T06:38:55;8.75;;;4.70;;
74626;SDS011;63132;52.268;5.192;2023-04-01T06:47:04;12.75;;;5.82;;
74626;SDS011;63132;52.268;5.192;2023-04-01T06:49:55;13.75;;;5.57;;
74626;SDS011;63132;52.268;5.192;2023-04-01T06:55:16;18.98;;;8.75;;
74626;SDS011;63132;52.268;5.192;2023-04-01T06:57:53;23.23;;;10.48;;
74626;SDS011;63132;52.268;5.192;2023-04-01T07:00:27;27.40;;;10.80;;
74626;SDS011;63132;52.268;5.192;2023-04-01T07:05:25;27.13;;;10.60;;
74626;SDS011;63132;52.268;5.192;2023-04-01T07:08:01;24.92;;;10.25;;
74626;SDS011;63132;52.268;5.192;2023-04-01T07:13:05;29.35;;;11.00;;
74626;SDS011;63132;52.268;5.192;2023-04-01T07:15:44;21.58;;;9.10;;
74626;SDS011;63132;52.268;5.192;2023-04-01T07:21:39;26.73;;;10.57;;
74626;SDS011;63132;52.268;5.192;2023-04-01T07:24:11;28.55;;;11.15;;
74626;SDS011;63132;52.268;5.192;2023-04-01T07:26:43;27.30;;;11.55;;
74626;SDS011;63132;52.268;5.192;2023-04-01T07:29:12;32.40;;;11.55;;
74626;SDS011;63132;52.268;5.192;2023-04-01T07:37:15;23.90;;;11.52;;
74626;SDS011;63132;52.268;5.192;2023-04-01T07:39:56;32.53;;;12.48;;
74626;SDS011;63132;52.268;5.192;2023-04-01T07:53:36;35.95;;;14.15;;
74626;SDS011;63132;52.268;5.192;2023-04-01T08:12:27;33.13;;;13.38;;
74626;SDS011;63132;52.268;5.192;2023-04-01T08:20:28;30.60;;;13.13;;
74626;SDS011;63132;52.268;5.192;2023-04-01T08:23:13;28.17;;;12.98;;
74626;SDS011;63132;52.268;5.192;2023-04-01T08:25:46;27.30;;;12.85;;
74626;SDS011;63132;52.268;5.192;2023-04-01T08:28:26;32.25;;;13.77;;
74626;SDS011;63132;52.268;5.192;2023-04-01T08:31:02;28.83;;;13.02;;
74626;SDS011;63132;52.268;5.192;2023-04-01T08:33:39;29.63;;;12.63;;
74626;SDS011;63132;52.268;5.192;2023-04-01T08:36:08;29.88;;;11.82;;
74626;SDS011;63132;52.268;5.192;2023-04-01T08:52:36;22.35;;;10.90;;
74626;SDS011;63132;52.268;5.192;2023-04-01T09:01:17;20.75;;;9.15;;
74626;SDS011;63132;52.268;5.192;2023-04-01T09:04:08;20.92;;;10.30;;
74626;SDS011;63132;52.268;5.192;2023-04-01T09:21:43;24.10;;;9.93;;
74626;SDS011;63132;52.268;5.192;2023-04-01T09:24:14;18.60;;;9.00;;
74626;SDS011;63132;52.268;5.192;2023-04-01T09:29:33;24.70;;;12.52;;
74626;SDS011;63132;52.268;5.192;2023-04-01T09:32:16;29.02;;;12.07;;
74626;SDS011;63132;52.268;5.192;2023-04-01T09:40:37;27.45;;;12.20;;
74626;SDS011;63132;52.268;5.192;2023-04-01T09:43:18;28.50;;;12.57;;
74626;SDS011;63132;52.268;5.192;2023-04-01T09:59:31;24.42;;;11.27;;
74626;SDS011;63132;52.268;5.192;2023-04-01T10:14:35;21.55;;;11.00;;
74626;SDS011;63132;52.268;5.192;2023-04-01T10:25:52;20.05;;;10.20;;
74626;SDS011;63132;52.268;5.192;2023-04-01T11:43:15;18.48;;;10.80;;
74626;SDS011;63132;52.268;5.192;2023-04-01T11:45:50;17.48;;;10.48;;
74626;SDS011;63132;52.268;5.192;2023-04-01T11:48:43;20.27;;;10.70;;
74626;SDS011;63132;52.268;5.192;2023-04-01T11:51:15;20.33;;;11.38;;
74626;SDS011;63132;52.268;5.192;2023-04-01T12:01:45;20.55;;;11.18;;
74626;SDS011;63132;52.268;5.192;2023-04-01T12:11:08;21.42;;;11.75;;
74626;SDS011;63132;52.268;5.192;2023-04-01T12:18:51;27.88;;;14.75;;
74626;SDS011;63132;52.268;5.192;2023-04-01T12:39:58;18.02;;;10.57;;
74626;SDS011;63132;52.268;5.192;2023-04-01T12:55:59;15.88;;;9.63;;
74626;SDS011;63132;52.268;5.192;2023-04-01T13:07:41;15.77;;;9.75;;
74626;SDS011;63132;52.268;5.192;2023-04-01T13:10:31;17.55;;;10.25;;
74626;SDS011;63132;52.268;5.192;2023-04-01T13:19:04;20.65;;;11.48;;
74626;SDS011;63132;52.268;5.192;2023-04-01T13:43:37;21.30;;;11.63;;
74626;SDS011;63132;52.268;5.192;2023-04-01T13:46:34;22.85;;;12.70;;
74626;SDS011;63132;52.268;5.192;2023-04-01T13:51:56;20.65;;;11.55;;
74626;SDS011;63132;52.268;5.192;2023-04-01T14:02:21;21.80;;;11.50;;
74626;SDS011;63132;52.268;5.192;2023-04-01T14:13:21;21.55;;;10.48;;
74626;SDS011;63132;52.268;5.192;2023-04-01T14:21:37;19.25;;;11.07;;
74626;SDS011;63132;52.268;5.192;2023-04-01T14:43:28;17.52;;;10.20;;
74626;SDS011;63132;52.268;5.192;2023-04-01T14:46:27;18.40;;;10.48;;
74626;SDS011;63132;52.268;5.192;2023-04-01T14:54:53;17.92;;;10.25;;
74626;SDS011;63132;52.268;5.192;2023-04-01T14:57:30;17.98;;;9.20;;
74626;SDS011;63132;52.268;5.192;2023-04-01T15:00:07;20.88;;;9.75;;
74626;SDS011;63132;52.268;5.192;2023-04-01T15:08:01;16.52;;;9.77;;
74626;SDS011;63132;52.268;5.192;2023-04-01T15:13:30;15.32;;;9.20;;
74626;SDS011;63132;52.268;5.192;2023-04-01T15:19:00;16.92;;;10.13;;
74626;SDS011;63132;52.268;5.192;2023-04-01T15:24:40;16.98;;;9.32;;
74626;SDS011;63132;52.268;5.192;2023-04-01T15:40:59;16.35;;;9.20;;
74626;SDS011;63132;52.268;5.192;2023-04-01T15:46:07;15.88;;;9.18;;
74626;SDS011;63132;52.268;5.192;2023-04-01T15:51:52;16.17;;;9.48;;
74626;SDS011;63132;52.268;5.192;2023-04-01T16:11:38;13.35;;;8.65;;
74626;SDS011;63132;52.268;5.192;2023-04-01T16:22:14;10.50;;;6.03;;
74626;SDS011;63132;52.268;5.192;2023-04-01T16:27:35;8.48;;;4.63;;
74626;SDS011;63132;52.268;5.192;2023-04-01T16:35:40;8.77;;;5.28;;
74626;SDS011;63132;52.268;5.192;2023-04-01T16:38:25;8.80;;;5.43;;
74626;SDS011;63132;52.268;5.192;2023-04-01T16:41:17;8.60;;;5.53;;
74626;SDS011;63132;52.268;5.192;2023-04-01T16:43:50;11.07;;;6.10;;
74626;SDS011;63132;52.268;5.192;2023-04-01T16:54:18;8.50;;;5.65;;
74626;SDS011;63132;52.268;5.192;2023-04-01T16:56:54;9.32;;;5.68;;
74626;SDS011;63132;52.268;5.192;2023-04-01T16:59:29;8.30;;;5.30;;
74626;SDS011;63132;52.268;5.192;2023-04-01T17:02:04;7.32;;;5.40;;
74626;SDS011;63132;52.268;5.192;2023-04-01T17:12:57;7.82;;;4.97;;
74626;SDS011;63132;52.268;5.192;2023-04-01T17:15:37;7.93;;;4.70;;
74626;SDS011;63132;52.268;5.192;2023-04-01T17:25:52;7.60;;;5.22;;
74626;SDS011;63132;52.268;5.192;2023-04-01T17:31:10;9.60;;;5.82;;
74626;SDS011;63132;52.268;5.192;2023-04-01T17:39:20;8.20;;;5.43;;
74626;SDS011;63132;52.268;5.192;2023-04-01T17:41:53;8.85;;;5.20;;
74626;SDS011;63132;52.268;5.192;2023-04-01T17:50:24;8.63;;;5.00;;
74626;SDS011;63132;52.268;5.192;2023-04-01T17:53:17;7.05;;;4.75;;
74626;SDS011;63132;52.268;5.192;2023-04-01T18:17:31;6.93;;;4.93;;
74626;SDS011;63132;52.268;5.192;2023-04-01T18:20:25;6.97;;;5.07;;
74626;SDS011;63132;52.268;5.192;2023-04-01T18:23:00;7.70;;;5.18;;
74626;SDS011;63132;52.268;5.192;2023-04-01T18:25:35;9.13;;;6.00;;
74626;SDS011;63132;52.268;5.192;2023-04-01T18:30:57;7.57;;;5.40;;
74626;SDS011;63132;52.268;5.192;2023-04-01T18:36:24;9.85;;;7.00;;
74626;SDS011;63132;52.268;5.192;2023-04-01T18:47:56;13.60;;;9.65;;
74626;SDS011;63132;52.268;5.192;2023-04-01T18:50:47;12.80;;;8.68;;
74626;SDS011;63132;52.268;5.192;2023-04-01T18:56:26;17.77;;;10.95;;
74626;SDS011;63132;52.268;5.192;2023-04-01T19:02:02;16.85;;;10.90;;
74626;SDS011;63132;52.268;5.192;2023-04-01T19:26:39;16.42;;;10.38;;
74626;SDS011;63132;52.268;5.192;2023-04-01T19:37:50;14.50;;;10.20;;
74626;SDS011;63132;52.268;5.192;2023-04-01T19:40:31;15.40;;;10.80;;
74626;SDS011;63132;52.268;5.192;2023-04-01T19:46:14;15.82;;;9.70;;
74626;SDS011;63132;52.268;5.192;2023-04-01T19:49:07;16.42;;;10.52;;
74626;SDS011;63132;52.268;5.192;2023-04-01T19:52:00;16.17;;;10.05;;
74626;SDS011;63132;52.268;5.192;2023-04-01T19:54:48;15.15;;;9.57;;
74626;SDS011;63132;52.268;5.192;2023-04-01T19:59:51;17.25;;;10.25;;
74626;SDS011;63132;52.268;5.192;2023-04-01T20:02:33;16.10;;;9.95;;
74626;SDS011;63132;52.268;5.192;2023-04-01T20:05:04;18.65;;;10.07;;
74626;SDS011;63132;52.268;5.192;2023-04-01T20:08:09;15.07;;;9.30;;
74626;SDS011;63132;52.268;5.192;2023-04-01T20:10:49;18.38;;;9.90;;
74626;SDS011;63132;52.268;5.192;2023-04-01T20:16:07;14.77;;;10.52;;
74626;SDS011;63132;52.268;5.192;2023-04-01T20:18:39;17.42;;;10.70;;
74626;SDS011;63132;52.268;5.192;2023-04-01T20:21:21;16.98;;;10.50;;
74626;SDS011;63132;52.268;5.192;2023-04-01T20:26:40;19.20;;;11.13;;
74626;SDS011;63132;52.268;5.192;2023-04-01T20:32:03;18.02;;;11.00;;
74626;SDS011;63132;52.268;5.192;2023-04-01T20:34:45;16.73;;;9.60;;
74626;SDS011;63132;52.268;5.192;2023-04-01T20:42:40;17.83;;;10.88;;
74626;SDS011;63132;52.268;5.192;2023-04-01T20:50:59;15.88;;;10.10;;
74626;SDS011;63132;52.268;5.192;2023-04-01T21:04:36;15.25;;;9.88;;
74626;SDS011;63132;52.268;5.192;2023-04-01T21:19:55;16.57;;;10.43;;
74626;SDS011;63132;52.268;5.192;2023-04-01T21:31:36;17.35;;;10.00;;
74626;SDS011;63132;52.268;5.192;2023-04-01T21:37:19;16.65;;;10.38;;
74626;SDS011;63132;52.268;5.192;2023-04-01T21:42:49;15.48;;;10.18;;
74626;SDS011;63132;52.268;5.192;2023-04-01T21:45:21;16.63;;;10.40;;
74626;SDS011;63132;52.268;5.192;2023-04-01T22:02:24;20.58;;;12.02;;
74626;SDS011;63132;52.268;5.192;2023-04-01T22:16:08;24.92;;;13.88;;
74626;SDS011;63132;52.268;5.192;2023-04-01T22:29:12;26.33;;;13.18;;
74626;SDS011;63132;52.268;5.192;2023-04-01T22:40:24;27.13;;;14.10;;
74626;SDS011;63132;52.268;5.192;2023-04-01T22:42:53;22.73;;;12.95;;
74626;SDS011;63132;52.268;5.192;2023-04-01T22:47:57;21.17;;;12.98;;
74626;SDS011;63132;52.268;5.192;2023-04-01T22:50:30;23.27;;;13.60;;
74626;SDS011;63132;52.268;5.192;2023-04-01T22:55:45;26.15;;;13.55;;
74626;SDS011;63132;52.268;5.192;2023-04-01T22:58:18;25.70;;;13.30;;
74626;SDS011;63132;52.268;5.192;2023-04-01T23:00:58;25.23;;;14.80;;
74626;SDS011;63132;52.268;5.192;2023-04-01T23:03:28;23.20;;;12.68;;
74626;SDS011;63132;52.268;5.192;2023-04-01T23:06:02;23.85;;;13.63;;
74626;SDS011;63132;52.268;5.192;2023-04-01T23:11:07;21.65;;;13.15;;
74626;SDS011;63132;52.268;5.192;2023-04-01T23:13:39;18.42;;;12.95;;
74626;SDS011;63132;52.268;5.192;2023-04-01T23:16:08;20.50;;;12.52;;
74626;SDS011;63132;52.268;5.192;2023-04-01T23:18:52;26.80;;;12.98;;
74626;SDS011;63132;52.268;5.192;2023-04-01T23:21:26;22.45;;;12.07;;
74626;SDS011;63132;52.268;5.192;2023-04-01T23:24:10;21.13;;;12.07;;
74626;SDS011;63132;52.268;5.192;2023-04-01T23:27:38;24.15;;;12.48;;
74626;SDS011;63132;52.268;5.192;2023-04-01T23:29:48;22.55;;;13.57;;
74626;SDS011;63132;52.268;5.192;2023-04-01T23:32:18;23.23;;;13.57;;
74626;SDS011;63132;52.268;5.192;2023-04-01T23:34:50;22.48;;;12.63;;
74626;SDS011;63132;52.268;5.192;2023-04-01T23:37:21;25.20;;;13.82;;
74626;SDS011;63132;52.268;5.192;2023-04-01T23:39:48;25.30;;;13.48;;
74626;SDS011;63132;52.268;5.192;2023-04-01T23:42:30;22.88;;;13.00;;
74626;SDS011;63132;52.268;5.192;2023-04-01T23:44:58;26.30;;;13.88;;
74626;SDS011;63132;52.268;5.192;2023-04-01T23:47:45;28.23;;;14.48;;
74626;SDS011;63132;52.268;5.192;2023-04-01T23:50:17;27.77;;;15.32;;
74626;SDS011;63132;52.268;5.192;2023-04-01T23:52:52;25.75;;;15.48;;
74626;SDS011;63132;52.268;5.192;2023-04-01T23:55:24;24.33;;;14.25;;
74626;SDS011;63132;52.268;5.192;2023-04-01T23:58:13;31.13;;;14.98;;
